KGYY

Chicago/Gary

Airport
ICAO code
KGYY
Summary
ICAO Region
NAM
ICAO Territory
Location

Gary, Lake County, Indiana,

Elevation
591 ft
Coordinates
41° 37' 6" N , 87° 24' 48" W
KCC
Airport WX
Lake Effect Snow
Metar
Observation
KGYY 031945Z 03006KT 10SM CLR 17/07 A3035
Station
Gary Regional
Date/Time
2022-10-03 19:45:00
Wind direction
30°
Wind speed
06 kts
Lowest cloud amount
n/a
Temperature
17°C
Dew point
7°C
Humidity
51%
Weather condition
n/a

Description

Gary/Chicago International Airport is a public airport located 5 km northwest of the central business district of Gary, a city in Lake County, Indiana, United States. The airport, which serves the Chicago metropolitan area, is 40 km southeast of the Chicago Loop.

Climatology

Humid continental climate (Köppen climate classification Dfa) - characterized by four seasons: cold, windy, snowy winters, mild springs, hot, humid summers, and crisp and relatively short autumns. Precipitation reaches its lowest in January and February and peaks in summer and latter half of spring.

Airport map

Aerial View

SKYbrary Partners:

Safety knowledge contributed by: